Lake Angelus, Michigan
Current Conditions -  °F | °C
As of 7:53 PM on Tuesday 25 Nov 2014 (Local Time) from KPTK Reporting Station
Light Snow Light Snow  
Wind Chill: 22°   Ceiling: 2400
Heat Index: 29°   Visibility: 9mi
Dew Point: 22°   Wind: 7mph
Humidity: 75%   Direction: 250°WSW
Pressure: 30.13"   Gusts: NA
Location:  42.6755°N, 83.2525°W
Report Text: KPTK 260053Z 25006KT 9SM -SN OVC024 M02/M06 A3013 RMK AO2 SLP215 P0000 T10171056
Loading
Personal Weather Stations






























Interactive Weather Map New forecast layout! Learn more

10-Day Weather Forecast

Advertisements
Track Severe Weather on mobile